createdAt,value
2017-12-29T00:01:54.739Z,12.60
2017-12-29T00:04:22.756Z,9.37
2017-12-29T00:06:50.698Z,6.00
2017-12-29T00:09:18.620Z,6.87
2017-12-29T00:11:46.743Z,7.43
2017-12-29T00:14:14.745Z,5.50
2017-12-29T00:16:42.720Z,5.20
2017-12-29T00:19:10.815Z,8.77
2017-12-29T00:21:38.729Z,6.07
2017-12-29T00:24:06.732Z,8.73
2017-12-29T00:26:34.721Z,10.30
2017-12-29T00:29:02.582Z,4.20
2017-12-29T00:31:30.507Z,10.67
2017-12-29T00:33:58.452Z,6.80
2017-12-29T00:36:26.348Z,7.93
2017-12-29T00:38:54.406Z,6.60
2017-12-29T00:41:22.296Z,5.63
2017-12-29T00:43:50.217Z,8.13
2017-12-29T00:46:18.141Z,7.47
2017-12-29T00:48:46.065Z,6.90
2017-12-29T00:51:14.012Z,4.53
2017-12-29T00:53:41.992Z,8.23
2017-12-29T00:56:09.929Z,5.73
2017-12-29T00:58:37.833Z,9.87
2017-12-29T01:01:05.840Z,6.73
2017-12-29T01:03:33.790Z,8.43
2017-12-29T01:06:02.036Z,7.43
2017-12-29T01:08:29.935Z,7.47
2017-12-29T01:10:58.029Z,10.47
2017-12-29T01:13:25.921Z,8.17
2017-12-29T01:15:53.844Z,14.17
2017-12-29T01:18:21.769Z,6.90
2017-12-29T01:20:49.674Z,7.20
2017-12-29T01:23:17.617Z,10.10
2017-12-29T01:25:45.610Z,9.47
2017-12-29T01:28:13.527Z,10.33
2017-12-29T01:30:41.473Z,10.13
2017-12-29T01:33:09.421Z,10.23
2017-12-29T01:35:37.364Z,9.70
2017-12-29T01:38:05.285Z,10.60
2017-12-29T01:40:33.251Z,9.37
2017-12-29T01:43:01.163Z,11.23
2017-12-29T01:45:29.881Z,10.30
2017-12-29T01:47:57.808Z,8.80
2017-12-29T01:50:25.716Z,9.53
2017-12-29T01:52:53.865Z,11.90
2017-12-29T01:55:21.812Z,13.73
2017-12-29T01:57:49.804Z,10.03
2017-12-29T02:00:17.882Z,11.00
2017-12-29T02:02:45.797Z,9.30
2017-12-29T02:05:13.864Z,10.00
2017-12-29T02:07:41.779Z,8.80
2017-12-29T02:10:09.702Z,9.63
2017-12-29T02:12:37.737Z,11.73
2017-12-29T02:15:05.646Z,12.70
2017-12-29T02:17:33.582Z,12.30
2017-12-29T02:20:01.587Z,10.93
2017-12-29T02:22:29.507Z,8.07
2017-12-29T02:24:57.489Z,7.23
2017-12-29T02:27:25.397Z,7.50
2017-12-29T02:29:53.317Z,10.10
2017-12-29T02:32:21.246Z,13.87
2017-12-29T02:34:49.153Z,9.40
2017-12-29T02:37:17.085Z,13.30
2017-12-29T02:39:45.140Z,11.43
2017-12-29T02:42:13.207Z,8.97
2017-12-29T02:44:41.124Z,11.70
2017-12-29T02:47:09.049Z,12.97
2017-12-29T02:49:36.966Z,7.70
2017-12-29T02:52:05.360Z,9.97
2017-12-29T02:54:33.374Z,9.17
2017-12-29T02:57:01.297Z,8.33
2017-12-29T02:59:29.208Z,8.43
2017-12-29T03:01:57.136Z,10.37
2017-12-29T03:04:25.087Z,10.03
2017-12-29T03:06:53.013Z,13.73
2017-12-29T03:09:20.927Z,13.47
2017-12-29T03:11:49.009Z,14.03
2017-12-29T03:14:16.945Z,11.70
2017-12-29T03:16:44.896Z,16.57
2017-12-29T03:19:12.798Z,7.57
2017-12-29T03:21:40.751Z,14.30
2017-12-29T03:24:08.708Z,12.80
2017-12-29T03:26:36.639Z,8.37
2017-12-29T03:29:04.561Z,11.70
2017-12-29T03:31:32.573Z,15.00
2017-12-29T03:34:00.519Z,12.60
2017-12-29T03:36:28.484Z,14.87
2017-12-29T03:38:56.588Z,9.70
2017-12-29T03:41:24.505Z,11.43
2017-12-29T03:43:52.437Z,12.83
2017-12-29T03:46:20.365Z,11.57
2017-12-29T03:48:48.277Z,16.93
2017-12-29T03:51:16.191Z,11.37
2017-12-29T03:53:44.117Z,10.63
2017-12-29T03:56:12.037Z,16.20
2017-12-29T03:58:39.972Z,11.87
2017-12-29T04:01:07.962Z,11.93
2017-12-29T04:03:35.929Z,11.27
2017-12-29T04:06:03.884Z,11.10
2017-12-29T04:08:31.780Z,8.30
2017-12-29T04:10:59.713Z,12.83
2017-12-29T04:13:27.662Z,11.70
2017-12-29T04:15:56.888Z,10.90
2017-12-29T04:18:24.833Z,10.73
2017-12-29T04:20:52.782Z,12.00
2017-12-29T04:23:20.796Z,10.60
2017-12-29T04:25:48.674Z,17.13
2017-12-29T04:28:16.713Z,8.93
2017-12-29T04:30:44.826Z,6.27
2017-12-29T04:33:12.733Z,7.73
2017-12-29T04:35:40.647Z,9.90
2017-12-29T04:38:08.579Z,6.63
2017-12-29T04:40:36.586Z,10.13
2017-12-29T04:43:04.521Z,8.53
2017-12-29T04:45:32.536Z,7.20
2017-12-29T04:48:00.532Z,12.03
2017-12-29T04:50:28.566Z,13.30
2017-12-29T04:52:56.536Z,11.60
2017-12-29T04:55:24.514Z,10.37
2017-12-29T04:57:52.545Z,10.50
2017-12-29T05:00:20.513Z,11.90
2017-12-29T05:02:48.423Z,8.03
2017-12-29T05:05:16.386Z,13.40
2017-12-29T05:07:44.309Z,8.30
2017-12-29T05:10:12.221Z,6.90
2017-12-29T05:12:40.213Z,9.60
2017-12-29T05:15:08.184Z,10.43
2017-12-29T05:17:36.106Z,9.80
2017-12-29T05:20:04.018Z,10.10
2017-12-29T05:22:31.956Z,6.20
2017-12-29T05:24:59.877Z,14.67
2017-12-29T05:27:27.837Z,5.90
2017-12-29T05:29:55.742Z,8.27
2017-12-29T05:32:23.755Z,9.20
2017-12-29T05:34:51.742Z,11.57
2017-12-29T05:37:19.682Z,5.70
2017-12-29T05:39:47.625Z,7.90
2017-12-29T05:42:16.324Z,10.60
2017-12-29T05:44:44.284Z,9.23
2017-12-29T05:47:12.184Z,9.03
2017-12-29T05:49:40.157Z,6.70
2017-12-29T05:52:08.116Z,7.07
2017-12-29T05:54:36.047Z,8.17
2017-12-29T05:57:03.941Z,5.70
2017-12-29T05:59:31.880Z,7.90
2017-12-29T06:01:59.781Z,5.93
2017-12-29T06:04:27.765Z,9.90
2017-12-29T06:06:55.997Z,17.03
2017-12-29T06:09:23.915Z,9.20
2017-12-29T06:11:51.849Z,7.20
2017-12-29T06:14:19.772Z,7.80
2017-12-29T06:16:47.685Z,8.43
2017-12-29T06:19:15.606Z,6.53
2017-12-29T06:21:43.522Z,8.10
2017-12-29T06:24:11.545Z,7.13
2017-12-29T06:26:39.461Z,6.00
2017-12-29T06:29:07.364Z,7.87
2017-12-29T06:31:35.495Z,12.53
2017-12-29T06:34:03.477Z,7.20
2017-12-29T06:36:31.421Z,6.50
2017-12-29T06:38:59.347Z,7.83
2017-12-29T06:41:27.277Z,6.30
2017-12-29T06:43:55.213Z,9.40
2017-12-29T06:46:23.117Z,6.27
2017-12-29T06:48:51.100Z,6.50
2017-12-29T06:51:19.110Z,7.93
2017-12-29T06:53:47.033Z,8.90
2017-12-29T06:56:15.006Z,9.97
2017-12-29T06:58:42.999Z,6.80
2017-12-29T07:01:10.926Z,10.30
2017-12-29T07:03:38.870Z,5.67
2017-12-29T07:06:06.815Z,7.43
2017-12-29T07:08:34.734Z,8.97
2017-12-29T07:11:02.643Z,6.63
2017-12-29T07:13:30.546Z,4.50
2017-12-29T07:15:58.468Z,5.63
2017-12-29T07:18:26.384Z,11.13
2017-12-29T07:20:54.305Z,5.60
2017-12-29T07:23:22.218Z,3.53
2017-12-29T07:25:50.170Z,4.77
2017-12-29T07:28:18.184Z,5.57
2017-12-29T07:30:46.081Z,8.60
2017-12-29T07:33:13.997Z,9.40
2017-12-29T07:35:41.933Z,8.30
2017-12-29T07:38:09.911Z,9.63
2017-12-29T07:40:38.443Z,7.30
2017-12-29T07:43:06.375Z,9.20
2017-12-29T07:45:34.374Z,5.27
2017-12-29T07:48:02.296Z,4.50
2017-12-29T07:50:30.351Z,7.50
2017-12-29T07:52:58.256Z,6.60
2017-12-29T07:55:27.057Z,5.13
2017-12-29T07:57:55.074Z,7.90
2017-12-29T08:00:23.088Z,7.33
2017-12-29T08:02:51.011Z,6.70
2017-12-29T08:05:18.907Z,8.03
2017-12-29T08:07:46.874Z,16.00
2017-12-29T08:10:15.112Z,8.27
2017-12-29T08:12:43.179Z,10.77
2017-12-29T08:15:11.089Z,7.70
2017-12-29T08:17:39.024Z,6.93
2017-12-29T08:20:07.141Z,10.80
2017-12-29T08:22:35.159Z,7.53
2017-12-29T08:25:03.073Z,6.20
2017-12-29T08:27:31.141Z,6.80
2017-12-29T08:29:59.014Z,10.30
2017-12-29T08:32:26.941Z,10.37
2017-12-29T08:34:54.895Z,6.87
2017-12-29T08:37:22.965Z,14.37
2017-12-29T08:39:50.861Z,8.40
2017-12-29T08:42:18.841Z,7.70
2017-12-29T08:44:47.243Z,14.13
2017-12-29T08:47:15.180Z,7.33
2017-12-29T08:49:43.101Z,10.60
2017-12-29T08:52:11.030Z,12.57
2017-12-29T08:54:38.969Z,9.63
2017-12-29T08:57:06.887Z,8.47
2017-12-29T08:59:34.989Z,7.33
2017-12-29T09:02:02.912Z,7.10
2017-12-29T09:04:30.894Z,8.27
2017-12-29T09:06:58.768Z,12.03
2017-12-29T09:09:26.700Z,9.23
2017-12-29T09:11:54.608Z,7.40
2017-12-29T09:14:22.540Z,7.07
2017-12-29T09:16:51.073Z,8.57
2017-12-29T09:19:18.986Z,7.40
2017-12-29T09:21:46.926Z,18.50
2017-12-29T09:24:14.829Z,23.20
2017-12-29T09:26:42.764Z,14.37
2017-12-29T09:29:10.677Z,10.20
2017-12-29T09:31:38.589Z,7.03
2017-12-29T09:34:06.509Z,7.00
2017-12-29T09:36:34.437Z,10.57
2017-12-29T09:39:02.346Z,8.57
2017-12-29T09:41:30.416Z,9.40
2017-12-29T09:43:58.414Z,7.80
2017-12-29T09:46:26.459Z,8.80
2017-12-29T09:48:54.393Z,6.60
2017-12-29T09:51:22.306Z,15.73
2017-12-29T09:53:50.298Z,8.00
2017-12-29T09:56:18.223Z,10.20
2017-12-29T09:58:46.116Z,25.67
2017-12-29T10:01:14.061Z,13.37
2017-12-29T10:03:41.970Z,11.53
2017-12-29T10:06:10.018Z,14.37
2017-12-29T10:08:37.911Z,10.53
2017-12-29T10:11:05.813Z,12.87
2017-12-29T10:13:33.729Z,13.30
2017-12-29T10:16:01.649Z,17.17
2017-12-29T10:18:29.601Z,11.63
2017-12-29T10:20:57.533Z,10.23
2017-12-29T10:23:25.548Z,13.20
2017-12-29T10:25:53.462Z,15.20
2017-12-29T10:28:21.421Z,12.53
2017-12-29T10:30:49.395Z,14.60
2017-12-29T10:33:17.297Z,17.37
2017-12-29T10:35:45.269Z,12.30
2017-12-29T10:38:13.185Z,11.67
2017-12-29T10:40:41.228Z,12.77
2017-12-29T10:43:09.156Z,12.90
2017-12-29T10:45:37.102Z,14.30
2017-12-29T10:48:05.196Z,15.00
2017-12-29T10:50:33.309Z,12.60
2017-12-29T10:53:01.329Z,15.17
2017-12-29T10:55:29.257Z,18.20
2017-12-29T10:57:57.266Z,17.63
2017-12-29T11:00:25.276Z,13.90
2017-12-29T11:02:53.183Z,21.27
2017-12-29T11:05:21.130Z,13.63
2017-12-29T11:07:49.056Z,13.70
2017-12-29T11:10:16.969Z,15.73
2017-12-29T11:12:45.010Z,14.37
2017-12-29T11:15:12.992Z,15.10
2017-12-29T11:17:41.373Z,14.30
2017-12-29T11:20:09.302Z,12.40
2017-12-29T11:22:37.230Z,11.23
2017-12-29T11:25:05.148Z,15.60
2017-12-29T11:27:33.081Z,18.07
2017-12-29T11:30:01.013Z,22.27
2017-12-29T11:32:28.986Z,15.43
2017-12-29T11:34:56.915Z,18.90
2017-12-29T11:37:24.809Z,30.53
2017-12-29T11:39:53.576Z,14.37
2017-12-29T11:42:21.486Z,17.50
2017-12-29T11:44:49.417Z,16.70
2017-12-29T11:47:17.425Z,16.50
2017-12-29T11:49:45.374Z,16.37
2017-12-29T11:52:13.315Z,15.80
2017-12-29T11:54:41.259Z,16.43
2017-12-29T11:57:09.393Z,16.73
2017-12-29T11:59:37.378Z,13.00
2017-12-29T12:02:05.299Z,14.73
2017-12-29T12:04:34.112Z,15.60
2017-12-29T12:07:02.306Z,17.80
2017-12-29T12:09:30.277Z,15.60
2017-12-29T12:11:58.201Z,15.53
2017-12-29T12:14:26.138Z,15.57
2017-12-29T12:16:54.138Z,13.23
2017-12-29T12:19:22.057Z,17.40
2017-12-29T12:21:50.023Z,19.13
2017-12-29T12:24:17.950Z,14.90
2017-12-29T12:26:45.913Z,16.47
2017-12-29T12:29:13.835Z,11.13
2017-12-29T12:31:41.740Z,17.20
2017-12-29T12:34:09.673Z,11.67
2017-12-29T12:36:37.590Z,11.83
2017-12-29T12:39:05.561Z,15.20
2017-12-29T12:41:33.474Z,19.73
2017-12-29T12:44:01.518Z,25.10
2017-12-29T12:46:29.452Z,16.43
2017-12-29T12:48:57.422Z,13.07
2017-12-29T12:51:25.354Z,14.20
2017-12-29T12:53:53.294Z,13.23
2017-12-29T12:56:21.206Z,24.10
2017-12-29T12:58:49.218Z,17.70
2017-12-29T13:01:17.134Z,15.70
2017-12-29T13:03:45.184Z,15.50
2017-12-29T13:06:13.171Z,16.20
2017-12-29T13:08:41.094Z,14.13
2017-12-29T13:11:09.073Z,14.53
2017-12-29T13:13:37.001Z,15.67
2017-12-29T13:16:04.957Z,14.00
2017-12-29T13:18:32.979Z,20.33
2017-12-29T13:21:01.233Z,14.93
2017-12-29T13:23:29.125Z,19.17
2017-12-29T13:25:57.042Z,15.23
2017-12-29T13:28:25.055Z,19.30
2017-12-29T13:30:53.065Z,17.43
2017-12-29T13:33:20.987Z,19.70
2017-12-29T13:35:48.951Z,16.03
2017-12-29T13:38:17.354Z,18.30
2017-12-29T13:40:45.288Z,18.70
2017-12-29T13:43:13.209Z,15.20
2017-12-29T13:45:41.158Z,14.50
2017-12-29T13:48:09.089Z,14.47
2017-12-29T13:50:37.013Z,14.97
2017-12-29T13:53:05.482Z,19.50
2017-12-29T13:55:33.497Z,41.80
2017-12-29T13:58:01.634Z,24.00
2017-12-29T14:00:29.563Z,16.30
2017-12-29T14:02:57.561Z,15.87
2017-12-29T14:05:25.514Z,17.90
2017-12-29T14:07:53.444Z,19.33
2017-12-29T14:10:21.412Z,14.70
2017-12-29T14:12:49.389Z,14.20
2017-12-29T14:15:17.323Z,21.93
2017-12-29T14:17:45.352Z,13.97
2017-12-29T14:20:13.292Z,15.97
2017-12-29T14:22:41.249Z,14.23
2017-12-29T14:25:09.212Z,16.97
2017-12-29T14:27:37.612Z,17.33
2017-12-29T14:30:05.566Z,15.30
2017-12-29T14:32:33.552Z,19.63
2017-12-29T14:35:01.453Z,14.50
2017-12-29T14:37:29.434Z,15.50
2017-12-29T14:39:57.326Z,16.70
2017-12-29T14:42:25.385Z,20.10
2017-12-29T14:44:53.360Z,24.40
2017-12-29T14:47:21.365Z,18.20
2017-12-29T14:49:49.398Z,16.80
2017-12-29T14:52:18.124Z,17.03
2017-12-29T14:54:46.050Z,17.17
2017-12-29T14:57:13.961Z,16.27
2017-12-29T14:59:41.913Z,17.70
2017-12-29T15:02:10.750Z,15.73
2017-12-29T15:04:38.747Z,20.30
2017-12-29T15:07:06.709Z,22.70
2017-12-29T15:09:34.636Z,19.93
2017-12-29T15:12:03.173Z,17.53
2017-12-29T15:14:31.185Z,19.30
2017-12-29T15:16:59.094Z,20.10
2017-12-29T15:19:27.146Z,16.13
2017-12-29T15:21:55.095Z,23.27
2017-12-29T15:24:23.053Z,16.77
2017-12-29T15:26:50.993Z,19.57
2017-12-29T15:29:18.961Z,15.73
2017-12-29T15:31:47.092Z,22.40
2017-12-29T15:34:15.030Z,19.67
2017-12-29T15:36:43.067Z,21.30
2017-12-29T15:39:11.026Z,23.17
2017-12-29T15:41:38.963Z,20.60
2017-12-29T15:44:06.913Z,18.60
2017-12-29T15:46:34.830Z,18.47
2017-12-29T15:49:02.773Z,23.13
2017-12-29T15:51:31.680Z,21.37
2017-12-29T15:53:59.629Z,18.90
2017-12-29T15:56:27.729Z,15.90
2017-12-29T15:58:55.650Z,14.60
2017-12-29T16:01:28.222Z,16.57
2017-12-29T16:03:56.155Z,18.60
2017-12-29T16:06:24.168Z,15.00
2017-12-29T16:08:52.693Z,15.57
2017-12-29T16:11:20.668Z,15.93
2017-12-29T16:13:48.610Z,15.10
2017-12-29T16:16:16.552Z,13.73
2017-12-29T16:18:44.472Z,19.37
2017-12-29T16:21:12.426Z,20.43
2017-12-29T16:23:40.373Z,15.13
2017-12-29T16:26:08.329Z,23.17
2017-12-29T16:28:36.254Z,17.40
2017-12-29T16:31:04.236Z,17.63
2017-12-29T16:33:32.221Z,18.30
2017-12-29T16:36:00.623Z,21.43
2017-12-29T16:38:28.994Z,24.63
2017-12-29T16:40:56.968Z,23.83
2017-12-29T16:43:24.966Z,14.93
2017-12-29T16:45:52.880Z,18.10
2017-12-29T16:48:20.814Z,19.43
2017-12-29T16:50:48.872Z,16.17
2017-12-29T16:53:16.841Z,14.30
2017-12-29T16:55:44.781Z,20.43
2017-12-29T16:58:12.725Z,17.10
2017-12-29T17:00:40.693Z,16.30
2017-12-29T17:03:08.662Z,13.80
2017-12-29T17:05:36.549Z,17.70
2017-12-29T17:08:04.498Z,18.83
2017-12-29T17:10:32.435Z,17.27
2017-12-29T17:13:00.355Z,19.27
2017-12-29T17:15:28.290Z,14.77
2017-12-29T17:17:56.313Z,16.60
2017-12-29T17:20:24.375Z,17.90
2017-12-29T17:22:52.471Z,20.70
2017-12-29T17:25:20.432Z,24.57
2017-12-29T17:27:48.382Z,20.93
2017-12-29T17:30:16.471Z,26.67
2017-12-29T17:32:44.470Z,18.80
2017-12-29T17:35:12.393Z,26.10
2017-12-29T17:37:40.325Z,17.00
2017-12-29T17:40:08.257Z,18.53
2017-12-29T17:42:36.162Z,21.57
2017-12-29T17:45:04.107Z,22.30
2017-12-29T17:47:32.283Z,15.40
2017-12-29T17:50:00.225Z,22.97
2017-12-29T17:52:28.194Z,22.77
2017-12-29T17:54:56.155Z,19.50
2017-12-29T17:57:24.064Z,24.17
2017-12-29T17:59:52.005Z,17.23
2017-12-29T18:02:20.021Z,19.17
2017-12-29T18:04:48.059Z,19.20
2017-12-29T18:07:16.007Z,22.60
2017-12-29T18:09:43.930Z,32.00
2017-12-29T18:12:12.341Z,14.33
2017-12-29T18:14:40.293Z,16.17
2017-12-29T18:17:08.261Z,16.50
2017-12-29T18:19:36.721Z,16.00
2017-12-29T18:22:04.631Z,14.90
2017-12-29T18:24:32.695Z,17.63
2017-12-29T18:27:01.083Z,14.57
2017-12-29T18:29:29.032Z,15.50
2017-12-29T18:31:57.041Z,16.77
2017-12-29T18:34:25.048Z,21.00
2017-12-29T18:36:53.034Z,21.33
2017-12-29T18:39:21.204Z,21.20
2017-12-29T18:41:49.121Z,17.13
2017-12-29T18:44:17.031Z,14.37
2017-12-29T18:46:44.998Z,15.40
2017-12-29T18:49:12.921Z,14.17
2017-12-29T18:51:40.921Z,14.67
2017-12-29T18:54:08.839Z,16.15
2017-12-29T18:56:36.753Z,24.67
2017-12-29T18:59:04.728Z,14.00
2017-12-29T19:01:32.682Z,12.47
2017-12-29T19:04:00.603Z,15.67
2017-12-29T19:06:28.656Z,10.68
2017-12-29T19:08:56.561Z,17.13
2017-12-29T19:11:24.549Z,9.10
2017-12-29T19:13:52.459Z,21.73
2017-12-29T19:16:20.366Z,13.27
2017-12-29T19:18:48.295Z,12.83
2017-12-29T19:21:16.211Z,13.73
2017-12-29T19:23:44.133Z,16.80
2017-12-29T19:26:12.110Z,15.13
2017-12-29T19:28:42.221Z,11.20
2017-12-29T19:31:10.405Z,11.03
2017-12-29T19:33:38.305Z,7.70
2017-12-29T19:36:06.236Z,13.80
2017-12-29T19:38:34.150Z,12.60
2017-12-29T19:41:02.140Z,13.07
2017-12-29T19:43:30.025Z,8.43
2017-12-29T19:45:58.026Z,11.43
2017-12-29T19:48:25.940Z,8.87
2017-12-29T19:50:53.842Z,6.83
2017-12-29T19:53:21.741Z,5.77
2017-12-29T19:55:49.667Z,9.30
2017-12-29T19:58:17.660Z,7.03
2017-12-29T20:00:45.553Z,9.43
2017-12-29T20:03:13.474Z,8.40
2017-12-29T20:05:41.426Z,10.33
2017-12-29T20:08:09.334Z,13.43
2017-12-29T20:10:37.317Z,6.40
2017-12-29T20:13:05.869Z,7.93
2017-12-29T20:15:33.796Z,9.93
2017-12-29T20:18:01.731Z,10.53
2017-12-29T20:20:29.752Z,7.57
2017-12-29T20:22:57.728Z,9.50
2017-12-29T20:25:25.704Z,6.73
2017-12-29T20:27:53.629Z,6.10
2017-12-29T20:30:23.017Z,7.33
2017-12-29T20:32:50.892Z,7.47
2017-12-29T20:35:18.796Z,6.32
2017-12-29T20:37:46.743Z,8.77
2017-12-29T20:40:14.661Z,7.47
2017-12-29T20:42:42.683Z,7.00
2017-12-29T20:45:10.598Z,6.57
2017-12-29T20:47:38.520Z,5.80
2017-12-29T20:50:06.445Z,6.62
2017-12-29T20:52:34.357Z,11.03
2017-12-29T20:55:02.359Z,7.57
2017-12-29T20:57:30.306Z,7.97
2017-12-29T20:59:58.285Z,7.32
2017-12-29T21:02:26.218Z,6.70
2017-12-29T21:04:54.157Z,6.28
2017-12-29T21:07:22.073Z,5.80
2017-12-29T21:09:50.161Z,9.10
2017-12-29T21:12:18.094Z,6.47
2017-12-29T21:14:46.434Z,8.63
2017-12-29T21:17:14.390Z,6.93
2017-12-29T21:19:42.393Z,8.90
2017-12-29T21:22:10.303Z,5.30
2017-12-29T21:24:38.315Z,5.07
2017-12-29T21:27:06.221Z,4.53
2017-12-29T21:29:34.245Z,6.30
2017-12-29T21:32:02.160Z,5.60
2017-12-29T21:34:30.069Z,6.10
2017-12-29T21:36:57.973Z,5.33
2017-12-29T21:39:26.071Z,7.53
2017-12-29T21:41:53.977Z,7.70
2017-12-29T21:44:21.907Z,7.00
2017-12-29T21:46:50.130Z,8.60
2017-12-29T21:49:18.038Z,6.40
2017-12-29T21:51:45.992Z,29.53
2017-12-29T21:54:13.934Z,7.37
2017-12-29T21:56:42.178Z,7.90
2017-12-29T21:59:10.075Z,10.97
2017-12-29T22:01:38.009Z,7.00
2017-12-29T22:04:05.914Z,7.07
2017-12-29T22:06:33.821Z,8.30
2017-12-29T22:09:01.749Z,6.43
2017-12-29T22:11:29.696Z,12.37
2017-12-29T22:13:57.616Z,8.48
2017-12-29T22:16:25.764Z,8.13
2017-12-29T22:18:53.660Z,9.77
2017-12-29T22:21:21.687Z,6.90
2017-12-29T22:23:49.749Z,7.30
2017-12-29T22:26:17.727Z,8.97
2017-12-29T22:28:45.652Z,8.43
2017-12-29T22:31:13.596Z,7.30
2017-12-29T22:33:41.773Z,11.93
2017-12-29T22:36:09.874Z,8.43
2017-12-29T22:38:37.946Z,9.50
2017-12-29T22:41:05.934Z,6.37
2017-12-29T22:43:33.931Z,7.20
2017-12-29T22:46:01.921Z,8.87
2017-12-29T22:48:29.853Z,6.30
2017-12-29T22:50:57.761Z,9.20
2017-12-29T22:53:25.821Z,8.73
2017-12-29T22:55:53.737Z,10.23
2017-12-29T22:58:21.654Z,7.37
2017-12-29T23:00:49.635Z,9.60
2017-12-29T23:03:17.530Z,7.75
2017-12-29T23:05:45.439Z,6.23
2017-12-29T23:08:13.402Z,7.07
2017-12-29T23:10:41.331Z,5.22
2017-12-29T23:13:09.347Z,7.43
2017-12-29T23:15:37.333Z,6.80
2017-12-29T23:18:05.261Z,6.10
2017-12-29T23:20:33.216Z,8.25
2017-12-29T23:23:01.119Z,6.20
2017-12-29T23:25:29.539Z,7.32
2017-12-29T23:27:57.468Z,7.15
2017-12-29T23:30:25.521Z,5.73
2017-12-29T23:32:53.425Z,10.47
2017-12-29T23:35:21.398Z,8.13
2017-12-29T23:37:49.344Z,6.77
2017-12-29T23:40:17.236Z,5.90
2017-12-29T23:42:45.146Z,6.50
2017-12-29T23:45:13.161Z,6.28
2017-12-29T23:47:41.062Z,6.27
2017-12-29T23:50:08.965Z,8.63
2017-12-29T23:52:36.965Z,6.90
2017-12-29T23:55:04.955Z,6.12
2017-12-29T23:57:32.854Z,8.83
